Terminal Aerodrome Forecast
Issued by NWS Pocatello, ID

Home | Current Version | Previous Version | Text Only | Print | Product List | Glossary On
Versions: 1 2 3 4 5 6 7 8 9 10 11 12 13 14 15 16 17 18 19 20
445
FTUS45 KPIH 081120
TAFBYI
TAF
KBYI 081120Z 0812/0912 06006KT P6SM SCT040 SCT180
     FM081500 07010KT P6SM SCT040 SCT090 BKN140
     FM081900 08010KT P6SM VCSH SCT040 BKN090 OVC120
     FM082100 09010KT 6SM -SN BR SCT015 OVC025
     FM090300 16005KT 4SM -SN BR SCT008 OVC025=

USA.gov is the U.S. government's official web portal to all federal, state and local government web resources and services.